createdAt,value
2023-01-13T00:01:23.234Z,42.5
2023-01-13T00:21:23.292Z,42.49
2023-01-13T00:41:23.263Z,42.44
2023-01-13T01:01:23.294Z,42.35
2023-01-13T01:21:23.165Z,42.29
2023-01-13T01:41:23.155Z,42.22
2023-01-13T02:01:23.190Z,42.17
2023-01-13T02:21:23.098Z,42.07
2023-01-13T02:41:23.081Z,41.99
2023-01-13T03:01:23.157Z,41.92
2023-01-13T03:21:22.769Z,41.88
2023-01-13T03:41:22.758Z,41.83
2023-01-13T04:01:23.128Z,41.73
2023-01-13T04:21:22.981Z,41.67
2023-01-13T05:01:23.078Z,41.57
2023-01-13T06:01:22.936Z,41.41
2023-01-13T06:41:22.864Z,41.31
2023-01-13T07:41:22.826Z,41.2
2023-01-13T08:01:22.903Z,41.19
2023-01-13T08:21:22.769Z,41.08
2023-01-13T09:01:22.869Z,41.13
2023-01-13T09:21:22.762Z,40.96
2023-01-13T09:41:22.675Z,40.93
2023-01-13T10:01:22.754Z,40.91
2023-01-13T10:21:22.458Z,40.99
2023-01-13T10:41:22.641Z,40.8
2023-01-13T11:01:22.505Z,40.76
2023-01-13T11:21:22.326Z,40.72
2023-01-13T11:41:22.609Z,40.69
2023-01-13T12:01:23.420Z,40.65
2023-01-13T12:41:22.530Z,40.62
2023-01-13T13:01:22.553Z,40.66
2023-01-13T13:21:22.489Z,40.68
2023-01-13T13:41:22.458Z,40.7
2023-01-13T14:01:22.512Z,40.69
2023-01-13T14:21:22.373Z,40.78
2023-01-13T15:01:22.371Z,40.97
2023-01-13T15:41:22.278Z,41.04
2023-01-13T16:21:22.266Z,41.04
2023-01-13T17:21:22.279Z,40.99
2023-01-13T17:41:22.259Z,40.96
2023-01-13T18:01:22.364Z,40.94
2023-01-13T18:21:22.216Z,40.92
2023-01-13T18:41:22.201Z,40.9
2023-01-13T19:41:22.185Z,40.78
2023-01-13T20:01:22.292Z,40.74
2023-01-13T20:21:22.126Z,40.71
2023-01-13T20:41:22.151Z,40.68
2023-01-13T21:21:22.082Z,40.63
2023-01-13T22:01:22.249Z,40.59
2023-01-13T22:21:22.020Z,40.56
2023-01-13T23:41:22.026Z,40.43
